Blackfish, Arkansas
Current Conditions -  °F | °C
As of 3:53 AM on Saturday 29 Nov 2014 (Local Time) from KAWM Reporting Station
Few Clouds Few Clouds  
Wind Chill: 42°   Ceiling: Unl
Heat Index: 48°   Visibility: 10mi
Dew Point: 39°   Wind: 15mph
Humidity: 71%   Direction: 190°S
Pressure: 30.03"   Gusts: NA
Location:  35.0663°N, 90.4665°W
Report Text: KAWM 290953Z AUTO 19013KT 10SM FEW030 09/04 A3003 RMK AO2 SLP170 T00890039
Loading
Personal Weather Stations






























Interactive Weather Map New forecast layout! Learn more

10-Day Weather Forecast

Advertisements
Track Severe Weather on mobile